Time,TemperatureF,DewpointF,PressureIn,WindDirection,WindDirectionDegrees,WindSpeedMPH,WindSpeedGustMPH,Humidity,HourlyPrecipIn,Conditions,Clouds,dailyrainin,SoftwareType,DateUTC
2013-04-27 00:10:00,55.6,35.2,30.35,NNW,337,4.2,-999.0,46,-99.99,,,0.00,Acu-Link.com,2013-04-27 04:10:00,
2013-04-27 00:25:00,55.4,35.5,30.35,WSW,247,1.7,-999.0,47,-99.99,,,0.00,Acu-Link.com,2013-04-27 04:25:00,
2013-04-27 00:40:00,54.9,35.6,30.35,NNW,337,1.7,-999.0,48,-99.99,,,0.00,Acu-Link.com,2013-04-27 04:40:00,
2013-04-27 00:55:00,54.3,33.4,30.36,NNW,337,2.7,-999.0,45,-99.99,,,0.00,Acu-Link.com,2013-04-27 04:55:00,
2013-04-27 01:10:00,54.1,33.2,30.35,North,0,3.7,-999.0,45,-99.99,,,0.00,Acu-Link.com,2013-04-27 05:10:00,
2013-04-27 01:26:00,54.0,33.1,30.36,NW,315,7.3,-999.0,45,-99.99,,,0.00,Acu-Link.com,2013-04-27 05:26:00,
2013-04-27 01:41:00,53.6,33.3,30.36,NW,315,4.7,-999.0,46,-99.99,,,0.00,Acu-Link.com,2013-04-27 05:41:00,
2013-04-27 01:56:00,53.4,32.0,30.36,NNW,337,3.2,-999.0,44,-99.99,,,0.00,Acu-Link.com,2013-04-27 05:56:00,
2013-04-27 02:11:00,53.1,31.8,30.36,NNW,337,6.3,-999.0,44,-99.99,,,0.00,Acu-Link.com,2013-04-27 06:11:00,
2013-04-27 02:26:00,52.5,31.2,30.35,ENE,67,5.8,-999.0,44,-99.99,,,0.00,Acu-Link.com,2013-04-27 06:26:00,
2013-04-27 02:41:00,52.2,31.0,30.35,NW,315,5.8,-999.0,44,-99.99,,,0.00,Acu-Link.com,2013-04-27 06:41:00,
2013-04-27 02:57:00,52.0,30.8,30.35,NNW,337,4.7,-999.0,44,-99.99,,,0.00,Acu-Link.com,2013-04-27 06:57:00,
2013-04-27 03:12:00,52.0,30.8,30.35,NNW,337,4.2,-999.0,44,-99.99,,,0.00,Acu-Link.com,2013-04-27 07:12:00,
2013-04-27 03:27:00,52.0,30.8,30.35,NW,315,6.8,-999.0,44,-99.99,,,0.00,Acu-Link.com,2013-04-27 07:27:00,
2013-04-27 03:42:00,51.6,30.4,30.35,NNE,22,2.7,-999.0,44,-99.99,,,0.00,Acu-Link.com,2013-04-27 07:42:00,
2013-04-27 03:57:00,51.4,31.9,30.35,WNW,292,1.7,-999.0,47,-99.99,,,0.00,Acu-Link.com,2013-04-27 07:57:00,
2013-04-27 04:13:00,51.4,31.9,30.35,NW,315,5.3,-999.0,47,-99.99,,,0.00,Acu-Link.com,2013-04-27 08:13:00,
2013-04-27 04:28:00,51.4,31.3,30.35,West,270,2.2,-999.0,46,-99.99,,,0.00,Acu-Link.com,2013-04-27 08:28:00,
2013-04-27 04:43:00,50.9,31.9,30.35,East,90,2.2,-999.0,48,-99.99,,,0.00,Acu-Link.com,2013-04-27 08:43:00,
2013-04-27 04:58:00,50.5,32.6,30.35,East,90,4.2,-999.0,50,-99.99,,,0.00,Acu-Link.com,2013-04-27 08:58:00,
2013-04-27 05:13:00,50.5,32.6,30.35,NW,315,4.7,-999.0,50,-99.99,,,0.00,Acu-Link.com,2013-04-27 09:13:00,
2013-04-27 05:28:00,50.7,32.7,30.35,NE,45,3.2,-999.0,50,-99.99,,,0.00,Acu-Link.com,2013-04-27 09:28:00,
2013-04-27 05:43:00,50.4,32.5,30.35,NNE,22,4.7,-999.0,50,-99.99,,,0.00,Acu-Link.com,2013-04-27 09:43:00,
2013-04-27 05:58:00,50.2,32.8,30.35,NW,315,5.3,-999.0,51,-99.99,,,0.00,Acu-Link.com,2013-04-27 09:58:00,
2013-04-27 06:14:00,50.0,32.6,30.36,NE,45,2.2,-999.0,51,-99.99,,,0.00,Acu-Link.com,2013-04-27 10:14:00,
2013-04-27 06:29:00,50.2,32.8,30.37,NNE,22,5.3,-999.0,51,-99.99,,,0.00,Acu-Link.com,2013-04-27 10:29:00,
2013-04-27 06:45:00,50.2,32.8,30.36,NNW,337,3.7,-999.0,51,-99.99,,,0.00,Acu-Link.com,2013-04-27 10:45:00,
2013-04-27 07:00:00,50.4,33.0,30.37,West,270,0.0,-999.0,51,-99.99,,,0.00,Acu-Link.com,2013-04-27 11:00:00,
2013-04-27 07:15:00,50.7,32.7,30.37,North,0,4.2,-999.0,50,-99.99,,,0.00,Acu-Link.com,2013-04-27 11:15:00,
2013-04-27 07:31:00,50.5,32.6,30.37,NNE,22,4.2,-999.0,50,-99.99,,,0.00,Acu-Link.com,2013-04-27 11:31:00,
2013-04-27 07:46:00,50.7,33.2,30.37,North,0,5.3,-999.0,51,-99.99,,,0.00,Acu-Link.com,2013-04-27 11:46:00,
2013-04-27 08:01:00,51.1,33.1,30.37,NNW,337,6.8,-999.0,50,-99.99,,,0.00,Acu-Link.com,2013-04-27 12:01:00,
2013-04-27 08:16:00,51.4,32.9,30.36,NW,315,7.8,-999.0,49,-99.99,,,0.00,Acu-Link.com,2013-04-27 12:16:00,
2013-04-27 08:31:00,51.8,33.8,30.36,NW,315,6.3,-999.0,50,-99.99,,,0.00,Acu-Link.com,2013-04-27 12:31:00,
2013-04-27 08:47:00,53.6,34.9,30.37,WNW,292,5.3,-999.0,49,-99.99,,,0.00,Acu-Link.com,2013-04-27 12:47:00,
2013-04-27 09:02:00,55.6,34.0,30.36,WNW,292,4.7,-999.0,44,-99.99,,,0.00,Acu-Link.com,2013-04-27 13:02:00,
2013-04-27 09:17:00,55.6,33.5,30.36,West,270,6.3,-999.0,43,-99.99,,,0.00,Acu-Link.com,2013-04-27 13:17:00,
2013-04-27 09:32:00,56.3,32.9,30.36,NNE,22,4.7,-999.0,41,-99.99,,,0.00,Acu-Link.com,2013-04-27 13:32:00,
2013-04-27 10:02:00,57.9,32.5,30.36,NW,315,7.3,-999.0,38,-99.99,,,0.00,Acu-Link.com,2013-04-27 14:02:00,
2013-04-27 10:18:00,58.5,31.6,30.36,NNW,337,6.3,-999.0,36,-99.99,,,0.00,Acu-Link.com,2013-04-27 14:18:00,
2013-04-27 10:33:00,59.4,31.7,30.35,NNE,22,6.3,-999.0,35,-99.99,,,0.00,Acu-Link.com,2013-04-27 14:33:00,
2013-04-27 10:48:00,60.8,32.3,30.36,East,90,3.7,-999.0,34,-99.99,,,0.00,Acu-Link.com,2013-04-27 14:48:00,
2013-04-27 11:03:00,62.4,33.7,30.35,WNW,292,5.8,-999.0,34,-99.99,,,0.00,Acu-Link.com,2013-04-27 15:03:00,
2013-04-27 11:19:00,62.4,32.2,30.34,NE,45,6.3,-999.0,32,-99.99,,,0.00,Acu-Link.com,2013-04-27 15:19:00,
2013-04-27 11:34:00,62.8,31.7,30.34,WNW,292,2.7,-999.0,31,-99.99,,,0.00,Acu-Link.com,2013-04-27 15:34:00,
2013-04-27 11:49:00,64.0,31.9,30.34,NNE,22,5.8,-999.0,30,-99.99,,,0.00,Acu-Link.com,2013-04-27 15:49:00,
2013-04-27 12:04:00,65.8,32.7,30.33,NNE,22,5.3,-999.0,29,-99.99,,,0.00,Acu-Link.com,2013-04-27 16:04:00,
2013-04-27 12:19:00,65.7,29.9,30.32,North,0,5.8,-999.0,26,-99.99,,,0.00,Acu-Link.com,2013-04-27 16:19:00,
2013-04-27 12:34:00,65.5,29.7,30.31,West,270,2.7,-999.0,26,-99.99,,,0.00,Acu-Link.com,2013-04-27 16:34:00,
2013-04-27 12:50:00,65.8,29.0,30.30,North,0,5.3,-999.0,25,-99.99,,,0.00,Acu-Link.com,2013-04-27 16:50:00,
2013-04-27 13:05:00,66.7,29.8,30.29,NNW,337,3.7,-999.0,25,-99.99,,,0.00,Acu-Link.com,2013-04-27 17:05:00,
2013-04-27 13:20:00,67.5,29.4,30.29,NNE,22,3.7,-999.0,24,-99.99,,,0.00,Acu-Link.com,2013-04-27 17:20:00,
2013-04-27 13:36:00,67.6,29.5,30.28,SW,225,4.2,-999.0,24,-99.99,,,0.00,Acu-Link.com,2013-04-27 17:36:00,
2013-04-27 13:51:00,68.0,28.8,30.28,ESE,112,2.2,-999.0,23,-99.99,,,0.00,Acu-Link.com,2013-04-27 17:51:00,
2013-04-27 14:06:00,68.5,29.2,30.28,NNW,337,10.9,-999.0,23,-99.99,,,0.00,Acu-Link.com,2013-04-27 18:06:00,
2013-04-27 14:21:00,68.0,27.7,30.27,NNW,337,7.8,-999.0,22,-99.99,,,0.00,Acu-Link.com,2013-04-27 18:21:00,
2013-04-27 14:37:00,68.9,29.6,30.26,NW,315,4.7,-999.0,23,-99.99,,,0.00,Acu-Link.com,2013-04-27 18:37:00,
2013-04-27 14:52:00,68.4,29.2,30.26,SW,225,4.7,-999.0,23,-99.99,,,0.00,Acu-Link.com,2013-04-27 18:52:00,
2013-04-27 15:07:00,68.5,29.2,30.25,SSW,202,2.7,-999.0,23,-99.99,,,0.00,Acu-Link.com,2013-04-27 19:07:00,
2013-04-27 15:22:00,69.6,30.2,30.24,NW,315,4.2,-999.0,23,-99.99,,,0.00,Acu-Link.com,2013-04-27 19:22:00,
2013-04-27 15:37:00,69.6,30.2,30.24,WNW,292,5.8,-999.0,23,-99.99,,,0.00,Acu-Link.com,2013-04-27 19:37:00,
2013-04-27 15:53:00,69.6,31.2,30.23,WNW,292,3.7,-999.0,24,-99.99,,,0.00,Acu-Link.com,2013-04-27 19:53:00,
2013-04-27 16:08:00,70.5,30.9,30.23,ENE,67,3.2,-999.0,23,-99.99,,,0.00,Acu-Link.com,2013-04-27 20:08:00,
2013-04-27 16:23:00,70.5,32.0,30.22,NNW,337,3.7,-999.0,24,-99.99,,,0.00,Acu-Link.com,2013-04-27 20:23:00,
2013-04-27 16:38:00,70.5,32.0,30.22,NW,315,4.7,-999.0,24,-99.99,,,0.00,Acu-Link.com,2013-04-27 20:38:00,
2013-04-27 16:53:00,70.7,33.1,30.22,NNW,337,5.3,-999.0,25,-99.99,,,0.00,Acu-Link.com,2013-04-27 20:53:00,
2013-04-27 17:09:00,70.3,31.8,30.22,West,270,7.3,-999.0,24,-99.99,,,0.00,Acu-Link.com,2013-04-27 21:09:00,
2013-04-27 17:24:00,69.1,34.6,30.22,West,270,5.3,-999.0,28,-99.99,,,0.00,Acu-Link.com,2013-04-27 21:24:00,
2013-04-27 17:39:00,68.7,35.2,30.21,WSW,247,7.8,-999.0,29,-99.99,,,0.00,Acu-Link.com,2013-04-27 21:39:00,
2013-04-27 17:54:00,71.2,35.5,30.21,East,90,1.7,-999.0,27,-99.99,,,0.00,Acu-Link.com,2013-04-27 21:54:00,
2013-04-27 18:09:00,69.6,35.0,30.21,South,180,7.8,-999.0,28,-99.99,,,0.00,Acu-Link.com,2013-04-27 22:09:00,
2013-04-27 18:24:00,68.5,35.8,30.21,South,180,4.2,-999.0,30,-99.99,,,0.00,Acu-Link.com,2013-04-27 22:24:00,
2013-04-27 18:39:00,65.7,35.0,30.21,South,180,4.7,-999.0,32,-99.99,,,0.00,Acu-Link.com,2013-04-27 22:39:00,
2013-04-27 18:54:00,65.5,34.9,30.21,SSW,202,2.7,-999.0,32,-99.99,,,0.00,Acu-Link.com,2013-04-27 22:54:00,
2013-04-27 19:09:00,66.0,34.5,30.21,ESE,112,4.7,-999.0,31,-99.99,,,0.00,Acu-Link.com,2013-04-27 23:09:00,
2013-04-27 19:25:00,63.5,33.9,30.21,SSW,202,5.3,-999.0,33,-99.99,,,0.00,Acu-Link.com,2013-04-27 23:25:00,
2013-04-27 19:40:00,62.6,33.8,30.21,WSW,247,3.7,-999.0,34,-99.99,,,0.00,Acu-Link.com,2013-04-27 23:40:00,
2013-04-27 19:55:00,62.8,34.0,30.22,ESE,112,3.2,-999.0,34,-99.99,,,0.00,Acu-Link.com,2013-04-27 23:55:00,
2013-04-27 20:10:00,61.5,33.6,30.22,SW,225,6.8,-999.0,35,-99.99,,,0.00,Acu-Link.com,2013-04-28 00:10:00,
2013-04-27 20:25:00,61.7,34.5,30.23,SE,135,3.2,-999.0,36,-99.99,,,0.00,Acu-Link.com,2013-04-28 00:25:00,
2013-04-27 20:41:00,61.5,34.3,30.23,SSW,202,6.3,-999.0,36,-99.99,,,0.00,Acu-Link.com,2013-04-28 00:41:00,
2013-04-27 20:56:00,61.2,33.3,30.24,SSE,157,4.7,-999.0,35,-99.99,,,0.00,Acu-Link.com,2013-04-28 00:56:00,
2013-04-27 21:11:00,61.3,34.1,30.25,WSW,247,4.2,-999.0,36,-99.99,,,0.00,Acu-Link.com,2013-04-28 01:11:00,
2013-04-27 21:26:00,61.2,34.0,30.25,SSE,157,3.2,-999.0,36,-99.99,,,0.00,Acu-Link.com,2013-04-28 01:26:00,
2013-04-27 21:41:00,60.8,33.0,30.24,SSW,202,3.7,-999.0,35,-99.99,,,0.00,Acu-Link.com,2013-04-28 01:41:00,
2013-04-27 21:57:00,60.3,31.8,30.24,SSW,202,3.2,-999.0,34,-99.99,,,0.00,Acu-Link.com,2013-04-28 01:57:00,
2013-04-27 22:12:00,60.3,32.5,30.25,South,180,3.7,-999.0,35,-99.99,,,0.00,Acu-Link.com,2013-04-28 02:12:00,
2013-04-27 22:27:00,60.1,30.9,30.24,SE,135,3.2,-999.0,33,-99.99,,,0.00,Acu-Link.com,2013-04-28 02:27:00,
2013-04-27 22:42:00,60.3,31.1,30.24,SW,225,4.2,-999.0,33,-99.99,,,0.00,Acu-Link.com,2013-04-28 02:42:00,
2013-04-27 22:58:00,59.7,30.6,30.24,East,90,3.7,-999.0,33,-99.99,,,0.00,Acu-Link.com,2013-04-28 02:58:00,
2013-04-27 23:13:00,59.7,31.3,30.24,West,270,3.7,-999.0,34,-99.99,,,0.00,Acu-Link.com,2013-04-28 03:13:00,
2013-04-27 23:28:00,59.2,30.9,30.24,ESE,112,3.2,-999.0,34,-99.99,,,0.00,Acu-Link.com,2013-04-28 03:28:00,
2013-04-27 23:44:00,59.2,31.6,30.24,South,180,1.7,-999.0,35,-99.99,,,0.00,Acu-Link.com,2013-04-28 03:44:00,
2013-04-27 23:59:00,58.8,31.9,30.24,SE,135,7.3,-999.0,36,-99.99,,,0.00,Acu-Link.com,2013-04-28 03:59:00,